createdAt,value
2022-08-11T00:05:20.040Z,22.46
2022-08-11T00:12:08.144Z,22.29
2022-08-11T00:18:58.938Z,22.80
2022-08-11T00:25:49.060Z,22.78
2022-08-11T00:32:35.387Z,22.90
2022-08-11T00:39:28.962Z,23.17
2022-08-11T00:46:25.864Z,22.77
2022-08-11T00:53:37.053Z,23.10
2022-08-11T01:00:27.508Z,23.10
2022-08-11T01:08:05.273Z,23.23
2022-08-11T01:15:35.844Z,23.16
2022-08-11T01:23:12.835Z,23.33
2022-08-11T01:30:54.223Z,23.52
2022-08-11T01:38:34.201Z,23.30
2022-08-11T01:45:36.377Z,23.17
2022-08-11T01:52:33.676Z,23.47
2022-08-11T01:59:29.392Z,23.31
2022-08-11T02:06:37.819Z,23.79
2022-08-11T02:13:39.242Z,23.94
2022-08-11T02:20:47.468Z,24.01
2022-08-11T02:27:44.163Z,23.42
2022-08-11T02:34:59.762Z,23.87
2022-08-11T02:42:32.817Z,23.92
2022-08-11T03:03:24.185Z,24.18
2022-08-11T03:10:16.514Z,24.23
2022-08-11T03:17:18.614Z,24.67
2022-08-11T03:24:14.227Z,24.48
2022-08-11T03:31:24.945Z,24.47
2022-08-11T03:38:15.812Z,24.51
2022-08-11T03:45:24.794Z,24.46
2022-08-11T03:52:27.737Z,24.88
2022-08-11T03:59:51.644Z,24.60
2022-08-11T04:07:22.429Z,24.94
2022-08-11T04:14:57.016Z,25.25
2022-08-11T04:22:39.080Z,25.50
2022-08-11T04:30:03.824Z,25.34
2022-08-11T04:37:42.853Z,25.71
2022-08-11T04:45:31.097Z,25.84
2022-08-11T04:53:22.816Z,26.06
2022-08-11T05:00:28.385Z,26.03
2022-08-11T05:08:06.195Z,26.62
2022-08-11T05:15:07.185Z,26.48
2022-08-11T05:22:13.292Z,26.78
2022-08-11T05:29:19.728Z,26.96
2022-08-11T05:36:18.620Z,26.88
2022-08-11T05:43:27.449Z,27.00
2022-08-11T05:50:31.113Z,26.73
2022-08-11T05:57:49.758Z,26.92
2022-08-11T06:04:35.247Z,26.63
2022-08-11T06:11:44.458Z,27.08
2022-08-11T06:18:27.183Z,26.37
2022-08-11T06:25:16.905Z,26.72
2022-08-11T06:32:05.977Z,26.97
2022-08-11T06:39:06.017Z,27.04
2022-08-11T06:46:03.966Z,26.72
2022-08-11T06:52:51.597Z,26.73
2022-08-11T06:59:52.261Z,26.60
2022-08-11T07:07:17.020Z,26.28
2022-08-11T07:14:17.917Z,26.65
2022-08-11T07:22:01.887Z,26.12
2022-08-11T07:29:00.633Z,26.44
2022-08-11T07:35:51.693Z,26.17
2022-08-11T07:42:38.864Z,26.19
2022-08-11T07:49:39.993Z,26.11
2022-08-11T07:56:54.887Z,26.04
2022-08-11T08:03:54.204Z,25.95
2022-08-11T08:10:55.696Z,26.28
2022-08-11T08:18:09.215Z,25.54
2022-08-11T08:25:03.778Z,25.78
2022-08-11T08:31:53.988Z,25.53
2022-08-11T08:38:40.227Z,25.33
2022-08-11T08:45:27.665Z,25.21
2022-08-11T08:52:27.945Z,24.90
2022-08-11T08:59:20.919Z,25.05
2022-08-11T09:06:06.786Z,24.60
2022-08-11T09:12:55.664Z,25.01
2022-08-11T09:19:41.891Z,24.58
2022-08-11T09:26:40.859Z,24.19
2022-08-11T09:33:31.242Z,24.16
2022-08-11T09:40:34.018Z,23.49
2022-08-11T09:47:25.946Z,23.59
2022-08-11T09:54:17.170Z,23.06
2022-08-11T10:01:07.960Z,22.68
2022-08-11T10:07:57.212Z,22.24
2022-08-11T10:15:04.164Z,21.86
2022-08-11T10:22:07.505Z,21.69
2022-08-11T10:29:12.023Z,21.85
2022-08-11T10:36:02.237Z,21.36
2022-08-11T10:43:01.426Z,21.30
2022-08-11T10:50:07.694Z,20.97
2022-08-11T10:57:10.526Z,20.96
2022-08-11T11:04:00.549Z,20.65
2022-08-11T11:10:46.482Z,20.33
2022-08-11T11:17:53.314Z,20.42
2022-08-11T11:24:54.606Z,20.38
2022-08-11T11:31:56.921Z,20.09
2022-08-11T11:38:45.855Z,20.04
2022-08-11T11:45:31.945Z,19.82
2022-08-11T11:52:20.841Z,20.09
2022-08-11T11:59:21.957Z,19.88
2022-08-11T12:06:08.462Z,19.67
2022-08-11T12:13:07.101Z,19.67
2022-08-11T12:19:57.240Z,19.66
2022-08-11T12:27:15.726Z,19.51
2022-08-11T12:34:06.414Z,19.43
2022-08-11T12:41:15.638Z,19.15
2022-08-11T12:48:59.535Z,19.02
2022-08-11T12:55:43.042Z,19.15
2022-08-11T13:03:04.273Z,18.88
2022-08-11T13:09:50.651Z,18.50
2022-08-11T13:16:59.158Z,18.39
2022-08-11T13:24:00.486Z,17.97
2022-08-11T13:31:02.242Z,17.80
2022-08-11T13:38:17.475Z,17.74
2022-08-11T13:45:01.141Z,17.72
2022-08-11T13:51:48.182Z,17.23
2022-08-11T13:58:39.967Z,17.68
2022-08-11T14:05:32.218Z,17.23
2022-08-11T14:12:39.411Z,17.13
2022-08-11T14:19:28.546Z,17.06
2022-08-11T14:26:27.172Z,16.71
2022-08-11T14:33:17.326Z,16.70
2022-08-11T14:40:31.809Z,16.92
2022-08-11T14:47:24.046Z,16.96
2022-08-11T14:54:23.389Z,16.76
2022-08-11T15:01:30.376Z,16.72
2022-08-11T15:08:42.033Z,16.51
2022-08-11T15:15:42.106Z,16.51
2022-08-11T15:22:40.247Z,16.80
2022-08-11T15:29:46.701Z,16.65
2022-08-11T15:36:47.108Z,16.32
2022-08-11T15:43:56.399Z,16.41
2022-08-11T15:50:51.013Z,16.40
2022-08-11T15:57:52.199Z,16.28
2022-08-11T16:04:40.532Z,16.23
2022-08-11T16:11:30.401Z,15.88
2022-08-11T16:18:23.772Z,16.31
2022-08-11T16:27:02.835Z,16.19
2022-08-11T16:32:25.819Z,15.66
2022-08-11T16:39:13.360Z,16.02
2022-08-11T16:46:12.290Z,15.67
2022-08-11T16:53:00.436Z,15.84
2022-08-11T16:59:47.185Z,15.85
2022-08-11T17:06:45.405Z,15.65
2022-08-11T17:13:40.072Z,15.94
2022-08-11T17:20:42.364Z,15.93
2022-08-11T17:27:30.541Z,15.74
2022-08-11T17:34:31.758Z,15.57
2022-08-11T17:41:31.096Z,15.88
2022-08-11T17:48:30.024Z,15.91
2022-08-11T17:55:52.451Z,15.73
2022-08-11T18:02:54.154Z,15.76
2022-08-11T18:09:52.666Z,16.10
2022-08-11T18:16:53.431Z,16.28
2022-08-11T18:23:51.592Z,16.11
2022-08-11T18:31:01.888Z,16.21
2022-08-11T18:38:06.695Z,16.17
2022-08-11T18:45:07.153Z,16.38
2022-08-11T18:52:09.218Z,16.62
2022-08-11T18:59:12.248Z,16.37
2022-08-11T19:06:38.142Z,16.90
2022-08-11T19:13:32.848Z,16.92
2022-08-11T19:20:40.817Z,16.91
2022-08-11T19:27:40.584Z,16.78
2022-08-11T19:34:41.078Z,17.15
2022-08-11T19:41:56.468Z,17.27
2022-08-11T19:48:57.924Z,17.59
2022-08-11T19:55:56.599Z,17.64
2022-08-11T20:02:57.354Z,17.70
2022-08-11T20:10:04.958Z,18.15
2022-08-11T20:17:05.053Z,17.95
2022-08-11T20:24:06.125Z,18.42
2022-08-11T20:31:05.809Z,18.31
2022-08-11T20:38:04.813Z,18.47
2022-08-11T20:45:07.300Z,18.98
2022-08-11T20:52:06.499Z,18.80
2022-08-11T20:59:21.730Z,19.20
2022-08-11T21:06:31.181Z,18.85
2022-08-11T21:13:33.369Z,18.86
2022-08-11T21:20:33.960Z,19.31
2022-08-11T21:27:37.694Z,19.61
2022-08-11T21:34:37.848Z,19.38
2022-08-11T21:41:36.277Z,19.65
2022-08-11T21:48:38.255Z,20.07
2022-08-11T21:55:40.402Z,19.87
2022-08-11T22:02:39.233Z,20.45
2022-08-11T22:09:40.085Z,20.49
2022-08-11T22:16:38.176Z,20.36
2022-08-11T22:23:37.965Z,20.81
2022-08-11T22:30:38.567Z,21.03
2022-08-11T22:37:37.932Z,21.16
2022-08-11T22:44:36.378Z,21.10
2022-08-11T22:51:40.086Z,21.34
2022-08-11T22:58:38.850Z,21.19
2022-08-11T23:05:37.825Z,21.36
2022-08-11T23:12:38.818Z,21.35
2022-08-11T23:20:10.572Z,21.22
2022-08-11T23:26:57.620Z,21.70
2022-08-11T23:34:02.866Z,21.66
2022-08-11T23:41:05.772Z,21.66
2022-08-11T23:48:05.897Z,21.77
2022-08-11T23:55:07.025Z,21.84
